createdAt,value
2023-04-11T00:00:00.763Z,17.6025390625
2023-04-11T00:10:00.613Z,17.00439453125
2023-04-11T00:20:00.760Z,16.50390625
2023-04-11T00:30:00.491Z,18.00537109375
2023-04-11T00:40:00.436Z,18.798828125
2023-04-11T00:50:00.329Z,20.10498046875
2023-04-11T01:00:00.415Z,20.49560546875
2023-04-11T01:10:00.169Z,20.80078125
2023-04-11T01:20:00.245Z,20.60546875
2023-04-11T01:30:00.130Z,20.60546875
2023-04-11T01:40:00.095Z,20.49560546875
2023-04-11T01:50:00.038Z,20.60546875
2023-04-11T01:59:59.976Z,21.30126953125
2023-04-11T02:09:59.854Z,19.9951171875
2023-04-11T02:19:59.930Z,19.9951171875
2023-04-11T02:29:59.696Z,18.994140625
2023-04-11T02:39:59.763Z,19.29931640625
2023-04-11T02:49:59.474Z,18.701171875
2023-04-11T02:59:59.484Z,18.29833984375
2023-04-11T03:09:59.411Z,18.39599609375
2023-04-11T03:19:59.349Z,18.39599609375
2023-04-11T03:29:59.302Z,18.10302734375
2023-04-11T03:39:59.178Z,18.00537109375
2023-04-11T03:49:59.017Z,17.8955078125
2023-04-11T03:59:59.097Z,17.7978515625
2023-04-11T04:09:59.024Z,17.7978515625
2023-04-11T04:19:58.894Z,17.7001953125
2023-04-11T04:30:04.333Z,17.7001953125
2023-04-11T04:39:58.820Z,17.39501953125
2023-04-11T04:49:58.779Z,17.39501953125
2023-04-11T04:59:58.581Z,17.29736328125
2023-04-11T05:09:58.774Z,17.19970703125
2023-04-11T05:19:58.385Z,17.19970703125
2023-04-11T05:29:58.299Z,17.19970703125
2023-04-11T05:39:58.238Z,17.10205078125
2023-04-11T05:49:58.380Z,17.10205078125
2023-04-11T05:59:58.203Z,17.10205078125
2023-04-11T06:09:58.012Z,17.10205078125
2023-04-11T06:19:58.111Z,17.19970703125
2023-04-11T06:29:57.914Z,17.10205078125
2023-04-11T06:39:57.902Z,17.00439453125
2023-04-11T06:49:57.741Z,17.00439453125
2023-04-11T06:59:57.812Z,16.89453125
2023-04-11T07:09:57.705Z,16.796875
2023-04-11T07:19:57.595Z,16.69921875
2023-04-11T07:29:57.676Z,16.6015625
2023-04-11T07:39:57.464Z,16.6015625
2023-04-11T07:49:57.408Z,16.50390625
2023-04-11T07:59:57.348Z,16.50390625
2023-04-11T08:09:57.161Z,16.50390625
2023-04-11T08:19:57.194Z,16.39404296875
2023-04-11T08:29:57.138Z,16.29638671875
2023-04-11T08:39:56.979Z,16.19873046875
2023-04-11T08:49:57.185Z,16.29638671875
2023-04-11T08:59:56.998Z,16.19873046875
2023-04-11T09:09:56.924Z,16.00341796875
2023-04-11T09:19:56.713Z,16.00341796875
2023-04-11T09:29:56.972Z,15.90576171875
2023-04-11T09:39:56.702Z,15.6982421875
2023-04-11T09:49:56.644Z,15.90576171875
2023-04-11T09:59:56.536Z,15.6982421875
2023-04-11T10:09:56.397Z,15.7958984375
2023-04-11T10:19:56.728Z,16.00341796875
2023-04-11T10:29:56.242Z,15.7958984375
2023-04-11T10:39:56.190Z,15.5029296875
2023-04-11T10:49:56.049Z,15.29541015625
2023-04-11T10:59:56.094Z,15.10009765625
2023-04-11T11:09:56.081Z,14.90478515625
2023-04-11T11:19:56.246Z,14.794921875
2023-04-11T11:29:55.885Z,14.697265625
2023-04-11T11:39:55.759Z,14.599609375
2023-04-11T11:49:55.757Z,14.501953125
2023-04-11T11:59:55.619Z,14.404296875
2023-04-11T12:09:55.566Z,13.90380859375
2023-04-11T12:19:55.536Z,14.09912109375
2023-04-11T12:29:55.322Z,14.09912109375
2023-04-11T12:39:55.257Z,14.00146484375
2023-04-11T12:49:55.272Z,14.00146484375
2023-04-11T12:59:55.165Z,14.00146484375
2023-04-11T13:09:55.059Z,14.00146484375
2023-04-11T13:19:55.076Z,13.6962890625
2023-04-11T13:29:55.102Z,13.6962890625
2023-04-11T13:39:54.955Z,13.6962890625
2023-04-11T13:49:54.970Z,13.6962890625
2023-04-11T13:59:54.756Z,13.6962890625
2023-04-11T14:09:54.695Z,13.6962890625
2023-04-11T14:19:54.725Z,13.7939453125
2023-04-11T14:29:54.511Z,13.7939453125
2023-04-11T14:39:54.445Z,13.7939453125
2023-04-11T14:49:54.369Z,13.7939453125
2023-04-11T14:59:54.262Z,13.7939453125
2023-04-11T15:09:54.305Z,13.6962890625
2023-04-11T15:19:54.299Z,13.7939453125
2023-04-11T15:29:54.050Z,13.7939453125
2023-04-11T15:39:53.983Z,13.7939453125
2023-04-11T15:49:53.923Z,13.7939453125
2023-04-11T15:59:53.876Z,13.7939453125
2023-04-11T16:09:53.889Z,13.7939453125
2023-04-11T16:19:53.852Z,13.7939453125
2023-04-11T16:29:53.750Z,13.6962890625
2023-04-11T16:39:53.641Z,13.7939453125
2023-04-11T16:49:53.673Z,13.7939453125
2023-04-11T16:59:53.502Z,13.5986328125
2023-04-11T17:09:53.387Z,13.5986328125
2023-04-11T17:19:53.358Z,13.6962890625
2023-04-11T17:29:53.215Z,13.7939453125
2023-04-11T17:39:53.316Z,13.7939453125
2023-04-11T17:49:53.129Z,13.90380859375
2023-04-11T17:59:53.196Z,13.7939453125
2023-04-11T18:09:53.050Z,13.7939453125
2023-04-11T18:19:52.889Z,13.7939453125
2023-04-11T18:29:52.814Z,13.6962890625
2023-04-11T18:39:52.853Z,13.5986328125
2023-04-11T18:49:52.813Z,13.6962890625
2023-04-11T18:59:55.222Z,13.6962890625
2023-04-11T19:09:52.730Z,13.6962890625
2023-04-11T19:19:52.444Z,13.6962890625
2023-04-11T19:29:52.509Z,13.6962890625
2023-04-11T19:39:52.374Z,13.6962890625
2023-04-11T19:49:52.247Z,13.6962890625
2023-04-11T19:59:52.234Z,13.7939453125
2023-04-11T20:09:52.192Z,14.09912109375
2023-04-11T20:19:52.204Z,14.19677734375
2023-04-11T20:29:51.966Z,14.19677734375
2023-04-11T20:39:51.947Z,14.29443359375
2023-04-11T20:49:52.010Z,14.29443359375
2023-04-11T20:59:51.892Z,14.501953125
2023-04-11T21:09:51.693Z,14.501953125
2023-04-11T21:19:51.664Z,14.599609375
2023-04-11T21:29:51.704Z,14.697265625
2023-04-11T21:39:51.498Z,15.00244140625
2023-04-11T21:49:51.476Z,16.00341796875
2023-04-11T21:59:51.398Z,16.19873046875
2023-04-11T22:09:51.508Z,16.50390625
2023-04-11T22:19:51.239Z,17.5048828125
2023-04-11T22:29:51.112Z,17.8955078125
2023-04-11T22:39:51.375Z,18.20068359375
2023-04-11T22:49:51.190Z,18.505859375
2023-04-11T22:59:51.013Z,18.701171875
2023-04-11T23:09:50.881Z,18.896484375
2023-04-11T23:19:51.185Z,19.39697265625
2023-04-11T23:29:50.789Z,20.10498046875
2023-04-11T23:39:50.689Z,20.30029296875
2023-04-11T23:49:50.668Z,19.20166015625
2023-04-11T23:59:50.560Z,20.20263671875
